createdAt,value
2022-11-20T00:01:43.135Z,7.63
2022-11-20T00:06:47.754Z,11.25
2022-11-20T00:11:49.715Z,9.80
2022-11-20T00:16:51.745Z,8.70
2022-11-20T00:21:56.307Z,9.80
2022-11-20T00:32:00.024Z,11.95
2022-11-20T00:37:03.333Z,6.80
2022-11-20T00:42:05.381Z,7.18
2022-11-20T00:47:07.350Z,9.27
2022-11-20T00:52:10.745Z,8.27
2022-11-20T00:57:12.726Z,9.60
2022-11-20T01:02:16.435Z,8.18
2022-11-20T01:07:19.804Z,6.80
2022-11-20T01:12:21.961Z,7.95
2022-11-20T01:17:24.029Z,8.95
2022-11-20T01:22:27.303Z,7.65
2022-11-20T01:27:29.236Z,10.02
2022-11-20T01:32:31.175Z,7.85
2022-11-20T01:37:34.457Z,6.80
2022-11-20T01:42:55.120Z,5.80
2022-11-20T01:47:57.057Z,7.53
2022-11-20T01:53:04.925Z,5.82
2022-11-20T01:58:07.236Z,6.43
2022-11-20T02:03:12.152Z,5.70
2022-11-20T02:08:16.558Z,6.25
2022-11-20T02:13:37.072Z,5.53
2022-11-20T02:18:39.748Z,7.43
2022-11-20T02:23:55.116Z,3.60
2022-11-20T02:28:58.067Z,4.72
2022-11-20T02:34:00.096Z,5.93
2022-11-20T02:39:03.679Z,5.03
2022-11-20T02:44:06.473Z,5.82
2022-11-20T02:49:08.456Z,6.55
2022-11-20T02:54:11.749Z,5.95
2022-11-20T02:59:13.779Z,6.10
2022-11-20T03:04:15.869Z,5.90
2022-11-20T03:09:19.568Z,5.47
2022-11-20T03:14:21.799Z,7.40
2022-11-20T03:19:23.934Z,6.18
2022-11-20T03:24:27.675Z,4.85
2022-11-20T03:29:29.901Z,6.15
2022-11-20T03:34:31.827Z,6.40
2022-11-20T03:39:35.076Z,6.90
2022-11-20T03:44:36.996Z,4.65
2022-11-20T03:49:38.900Z,5.53
2022-11-20T03:54:42.209Z,6.50
2022-11-20T03:59:44.184Z,5.85
2022-11-20T04:04:46.107Z,6.55
2022-11-20T04:09:49.468Z,6.57
2022-11-20T04:14:51.374Z,6.55
2022-11-20T04:19:53.348Z,5.00
2022-11-20T04:24:56.641Z,5.15
2022-11-20T04:29:58.569Z,6.90
2022-11-20T04:35:00.517Z,6.97
2022-11-20T04:40:04.386Z,6.50
2022-11-20T04:45:07.175Z,8.95
2022-11-20T04:50:10.079Z,6.35
2022-11-20T04:55:13.443Z,5.78
2022-11-20T05:00:16.584Z,4.38
2022-11-20T05:05:19.002Z,6.68
2022-11-20T05:10:22.298Z,7.55
2022-11-20T05:15:24.216Z,5.30
2022-11-20T05:20:26.360Z,6.47
2022-11-20T05:25:29.607Z,6.78
2022-11-20T05:30:31.598Z,7.80
2022-11-20T05:35:33.566Z,6.57
2022-11-20T05:40:37.506Z,7.22
2022-11-20T05:45:39.447Z,7.60
2022-11-20T05:50:41.396Z,4.55
2022-11-20T05:55:44.852Z,6.20
2022-11-20T06:00:46.774Z,8.35
2022-11-20T06:05:48.836Z,4.00
2022-11-20T06:10:52.816Z,8.48
2022-11-20T06:15:55.077Z,6.35
2022-11-20T06:21:01.960Z,5.53
2022-11-20T06:26:06.978Z,7.47
2022-11-20T06:31:12.180Z,5.70
2022-11-20T06:36:16.413Z,7.32
2022-11-20T06:41:21.573Z,5.05
2022-11-20T06:46:23.585Z,6.68
2022-11-20T06:51:25.798Z,8.10
2022-11-20T06:56:29.339Z,5.65
2022-11-20T07:01:31.283Z,5.28
2022-11-20T07:06:33.269Z,6.35
2022-11-20T07:11:36.512Z,4.00
2022-11-20T07:16:38.483Z,7.55
2022-11-20T07:21:40.488Z,7.80
2022-11-20T07:26:46.636Z,6.93
2022-11-20T07:31:48.567Z,7.50
2022-11-20T07:36:50.609Z,9.48
2022-11-20T07:41:53.933Z,10.60
2022-11-20T07:46:56.008Z,7.78
2022-11-20T07:52:03.165Z,6.05
2022-11-20T07:57:07.903Z,8.82
2022-11-20T08:02:11.018Z,9.25
2022-11-20T08:07:13.078Z,8.68
2022-11-20T08:12:39.180Z,8.43
2022-11-20T08:17:41.160Z,8.75
2022-11-20T08:22:43.162Z,9.20
2022-11-20T08:27:46.536Z,10.70
2022-11-20T08:32:48.504Z,7.85
2022-11-20T08:37:50.615Z,7.93
2022-11-20T08:42:53.911Z,11.48
2022-11-20T08:48:01.143Z,11.88
2022-11-20T08:53:04.431Z,13.10
2022-11-20T08:58:07.798Z,12.13
2022-11-20T09:03:10.105Z,11.32
2022-11-20T09:08:12.233Z,15.90
2022-11-20T09:13:15.573Z,12.40
2022-11-20T09:18:17.509Z,8.20
2022-11-20T09:23:19.698Z,13.38
2022-11-20T09:28:23.211Z,11.30
2022-11-20T09:33:25.119Z,14.98
2022-11-20T09:38:27.142Z,13.80
2022-11-20T09:43:43.474Z,12.77
2022-11-20T09:49:05.005Z,16.60
2022-11-20T09:54:16.297Z,13.05
2022-11-20T09:59:33.309Z,13.95
2022-11-20T10:04:43.719Z,12.52
2022-11-20T10:15:15.481Z,13.55
2022-11-20T10:20:24.962Z,12.77
2022-11-20T10:25:34.816Z,13.90
2022-11-20T10:30:43.373Z,15.02
2022-11-20T10:35:50.068Z,18.85
2022-11-20T10:41:15.658Z,12.60
2022-11-20T10:46:23.142Z,17.58
2022-11-20T10:51:36.691Z,15.23
2022-11-20T10:56:48.309Z,18.10
2022-11-20T11:01:53.102Z,13.85
2022-11-20T11:07:00.121Z,13.02
2022-11-20T11:12:06.932Z,12.32
2022-11-20T11:17:22.573Z,13.77
2022-11-20T11:22:24.620Z,17.85
2022-11-20T11:27:26.632Z,17.13
2022-11-20T11:32:30.031Z,19.17
2022-11-20T11:37:36.631Z,16.38
2022-11-20T11:42:44.044Z,15.15
2022-11-20T11:47:49.249Z,15.50
2022-11-20T11:53:03.105Z,16.42
2022-11-20T11:58:17.934Z,19.33
2022-11-20T12:03:25.678Z,18.58
2022-11-20T12:08:33.421Z,19.35
2022-11-20T12:13:45.041Z,16.23
2022-11-20T12:18:49.885Z,19.00
2022-11-20T12:31:53.896Z,19.55
2022-11-20T12:37:00.608Z,21.02
2022-11-20T12:42:39.186Z,23.40
2022-11-20T12:48:04.021Z,24.02
2022-11-20T12:53:11.924Z,21.67
2022-11-20T12:58:21.853Z,20.77
2022-11-20T13:03:41.552Z,20.83
2022-11-20T13:08:49.178Z,20.95
2022-11-20T13:14:06.030Z,21.00
2022-11-20T13:19:13.120Z,21.40
2022-11-20T13:24:26.363Z,21.73
2022-11-20T13:29:29.571Z,20.60
2022-11-20T13:34:33.453Z,22.65
2022-11-20T13:39:37.786Z,23.90
2022-11-20T13:44:43.667Z,19.02
2022-11-20T13:49:49.134Z,25.27
2022-11-20T13:55:07.781Z,13.38
2022-11-20T14:00:13.271Z,20.70
2022-11-20T14:05:22.401Z,16.35
2022-11-20T14:10:31.336Z,13.70
2022-11-20T14:15:36.046Z,12.18
2022-11-20T14:20:43.394Z,6.05
2022-11-20T14:25:46.130Z,5.78
2022-11-20T14:30:49.386Z,9.52
2022-11-20T14:35:54.789Z,20.88
2022-11-20T14:41:07.222Z,21.98
2022-11-20T14:46:11.266Z,20.70
2022-11-20T14:56:26.017Z,22.50
2022-11-20T15:01:29.385Z,6.70
2022-11-20T15:06:32.795Z,7.30
2022-11-20T15:11:36.640Z,6.15
2022-11-20T15:16:40.393Z,6.45
2022-11-20T15:21:43.709Z,6.03
2022-11-20T15:26:45.952Z,6.05
2022-11-20T15:31:47.955Z,5.85
2022-11-20T15:36:51.273Z,6.65
2022-11-20T15:41:53.226Z,7.90
2022-11-20T15:46:55.496Z,6.18
2022-11-20T15:51:58.779Z,8.25
2022-11-20T15:57:01.741Z,8.32
2022-11-20T16:02:03.746Z,8.20
2022-11-20T16:07:07.186Z,4.88
2022-11-20T16:12:30.534Z,6.55
2022-11-20T16:17:43.402Z,6.65
2022-11-20T16:22:46.731Z,4.68
2022-11-20T16:27:48.660Z,5.65
2022-11-20T16:32:50.765Z,5.22
2022-11-20T16:37:54.089Z,5.45
2022-11-20T16:42:57.927Z,3.72
2022-11-20T16:48:00.823Z,4.47
2022-11-20T16:53:04.083Z,5.03
2022-11-20T16:58:06.692Z,4.90
2022-11-20T17:03:09.147Z,5.03
2022-11-20T17:08:12.497Z,6.50
2022-11-20T17:13:14.800Z,3.85
2022-11-20T17:18:16.773Z,9.13
2022-11-20T17:23:20.025Z,22.63
2022-11-20T17:28:22.008Z,12.15
2022-11-20T17:33:24.049Z,15.52
2022-11-20T17:38:27.558Z,5.32
2022-11-20T17:43:35.343Z,5.20
2022-11-20T17:48:38.192Z,3.95
2022-11-20T17:53:43.615Z,3.45
2022-11-20T17:58:45.613Z,3.45
2022-11-20T18:03:47.704Z,3.92
2022-11-20T18:08:51.737Z,3.83
2022-11-20T18:19:18.054Z,4.22
2022-11-20T18:24:22.181Z,5.07
2022-11-20T18:29:25.321Z,4.18
2022-11-20T18:34:27.983Z,4.22
2022-11-20T18:39:32.419Z,4.18
2022-11-20T18:44:53.569Z,4.57
2022-11-20T18:49:57.419Z,4.57
2022-11-20T18:55:02.490Z,4.00
2022-11-20T19:00:09.220Z,4.38
2022-11-20T19:05:12.945Z,3.95
2022-11-20T19:10:20.066Z,5.13
2022-11-20T19:15:22.345Z,5.75
2022-11-20T19:20:24.558Z,5.63
2022-11-20T19:25:27.869Z,4.22
2022-11-20T19:30:30.049Z,4.45
2022-11-20T19:35:32.031Z,4.95
2022-11-20T19:40:35.366Z,4.97
2022-11-20T19:45:37.345Z,5.03
2022-11-20T19:50:39.306Z,4.28
2022-11-20T20:00:47.689Z,3.85
2022-11-20T20:05:49.651Z,3.40
2022-11-20T20:10:56.696Z,3.35
2022-11-20T20:16:01.422Z,3.95
2022-11-20T20:21:04.432Z,3.63
2022-11-20T20:26:09.098Z,4.57
2022-11-20T20:31:12.987Z,4.68
2022-11-20T20:41:21.622Z,3.58
2022-11-20T20:46:23.912Z,5.00
2022-11-20T20:51:26.170Z,4.30
2022-11-20T20:56:29.474Z,4.20
2022-11-20T21:01:31.486Z,4.40
2022-11-20T21:06:33.545Z,4.43
2022-11-20T21:11:36.825Z,4.28
2022-11-20T21:16:43.739Z,4.45
2022-11-20T21:22:02.902Z,4.07
2022-11-20T21:27:06.849Z,4.72
2022-11-20T21:37:10.558Z,3.03
2022-11-20T21:42:14.788Z,3.47
2022-11-20T21:47:16.751Z,3.25
2022-11-20T21:52:18.788Z,3.92
2022-11-20T21:57:22.074Z,11.52
2022-11-20T22:02:24.034Z,15.02
2022-11-20T22:07:26.068Z,13.80
2022-11-20T22:12:29.393Z,27.85
2022-11-20T22:17:49.827Z,35.35
2022-11-20T22:22:51.764Z,31.30
2022-11-20T22:27:55.161Z,26.13
2022-11-20T22:32:57.088Z,34.47
2022-11-20T22:37:59.102Z,12.32
2022-11-20T22:43:02.375Z,7.95
2022-11-20T22:48:04.937Z,8.20
2022-11-20T22:53:06.867Z,8.60
2022-11-20T22:58:10.125Z,6.80
2022-11-20T23:03:12.101Z,6.22
2022-11-20T23:08:14.057Z,6.88
2022-11-20T23:13:17.311Z,7.72
2022-11-20T23:18:19.353Z,10.07
2022-11-20T23:23:21.416Z,8.23
2022-11-20T23:28:24.683Z,8.32
2022-11-20T23:33:26.798Z,7.68
2022-11-20T23:38:28.725Z,7.68
2022-11-20T23:43:32.539Z,8.15
2022-11-20T23:48:36.515Z,9.13
2022-11-20T23:58:42.470Z,4.68
